sensor_id;sensor_type;location;lat;lon;timestamp;temperature;humidity
25024;DHT22;13033;50.936;5.334;2024-03-08T00:00:08;6.60;99.90
25024;DHT22;13033;50.936;5.334;2024-03-08T00:02:41;6.60;99.90
25024;DHT22;13033;50.936;5.334;2024-03-08T00:05:08;6.50;99.90
25024;DHT22;13033;50.936;5.334;2024-03-08T00:07:36;6.50;99.90
25024;DHT22;13033;50.936;5.334;2024-03-08T00:10:07;6.40;99.90
25024;DHT22;13033;50.936;5.334;2024-03-08T00:12:39;6.50;99.90
25024;DHT22;13033;50.936;5.334;2024-03-08T00:15:08;6.60;99.40
25024;DHT22;13033;50.936;5.334;2024-03-08T00:17:34;6.50;99.90
25024;DHT22;13033;50.936;5.334;2024-03-08T00:20:00;6.60;83.50
25024;DHT22;13033;50.936;5.334;2024-03-08T00:22:26;6.50;26.90
25024;DHT22;13033;50.936;5.334;2024-03-08T00:24:51;6.40;56.60
25024;DHT22;13033;50.936;5.334;2024-03-08T00:27:17;6.30;99.90
25024;DHT22;13033;50.936;5.334;2024-03-08T00:29:46;6.40;96.30
25024;DHT22;13033;50.936;5.334;2024-03-08T00:32:12;6.30;85.70
25024;DHT22;13033;50.936;5.334;2024-03-08T00:34:38;6.20;99.90
25024;DHT22;13033;50.936;5.334;2024-03-08T00:37:04;6.20;99.90
25024;DHT22;13033;50.936;5.334;2024-03-08T00:39:30;6.30;87.60
25024;DHT22;13033;50.936;5.334;2024-03-08T00:41:56;6.20;79.50
25024;DHT22;13033;50.936;5.334;2024-03-08T00:44:22;6.10;97.70
25024;DHT22;13033;50.936;5.334;2024-03-08T00:46:48;6.10;99.90
25024;DHT22;13033;50.936;5.334;2024-03-08T00:49:15;6.10;99.90
25024;DHT22;13033;50.936;5.334;2024-03-08T00:51:40;6.10;99.90
25024;DHT22;13033;50.936;5.334;2024-03-08T00:54:06;6.10;99.90
25024;DHT22;13033;50.936;5.334;2024-03-08T00:56:32;6.10;99.90
25024;DHT22;13033;50.936;5.334;2024-03-08T00:58:59;6.10;99.90
25024;DHT22;13033;50.936;5.334;2024-03-08T01:01:25;6.00;99.90
25024;DHT22;13033;50.936;5.334;2024-03-08T01:03:51;6.00;99.90
25024;DHT22;13033;50.936;5.334;2024-03-08T01:06:17;6.00;99.90
25024;DHT22;13033;50.936;5.334;2024-03-08T01:08:44;5.90;99.90
25024;DHT22;13033;50.936;5.334;2024-03-08T01:11:10;5.80;99.90
25024;DHT22;13033;50.936;5.334;2024-03-08T01:13:38;5.80;99.90
25024;DHT22;13033;50.936;5.334;2024-03-08T01:16:04;5.80;99.90
25024;DHT22;13033;50.936;5.334;2024-03-08T01:18:29;5.70;99.90
25024;DHT22;13033;50.936;5.334;2024-03-08T01:20:55;5.80;99.90
25024;DHT22;13033;50.936;5.334;2024-03-08T01:23:21;5.90;99.90
25024;DHT22;13033;50.936;5.334;2024-03-08T01:25:47;5.80;99.90
25024;DHT22;13033;50.936;5.334;2024-03-08T01:28:17;5.80;99.90
25024;DHT22;13033;50.936;5.334;2024-03-08T01:30:43;5.80;99.90
25024;DHT22;13033;50.936;5.334;2024-03-08T01:33:09;5.80;99.90
25024;DHT22;13033;50.936;5.334;2024-03-08T01:35:35;5.80;99.90
25024;DHT22;13033;50.936;5.334;2024-03-08T01:38:01;5.70;99.90
25024;DHT22;13033;50.936;5.334;2024-03-08T01:40:26;5.70;99.90
25024;DHT22;13033;50.936;5.334;2024-03-08T01:42:52;5.60;99.90
25024;DHT22;13033;50.936;5.334;2024-03-08T01:45:19;5.60;99.90
25024;DHT22;13033;50.936;5.334;2024-03-08T01:47:45;5.60;99.90
25024;DHT22;13033;50.936;5.334;2024-03-08T01:50:13;5.60;99.90
25024;DHT22;13033;50.936;5.334;2024-03-08T01:52:39;5.60;99.90
25024;DHT22;13033;50.936;5.334;2024-03-08T01:55:05;5.60;99.90
25024;DHT22;13033;50.936;5.334;2024-03-08T01:57:32;5.50;99.90
25024;DHT22;13033;50.936;5.334;2024-03-08T02:00:01;5.50;99.90
25024;DHT22;13033;50.936;5.334;2024-03-08T02:02:32;5.50;99.90
25024;DHT22;13033;50.936;5.334;2024-03-08T02:04:58;5.60;99.90
25024;DHT22;13033;50.936;5.334;2024-03-08T02:07:23;5.50;99.90
25024;DHT22;13033;50.936;5.334;2024-03-08T02:09:49;5.50;99.90
25024;DHT22;13033;50.936;5.334;2024-03-08T02:12:16;5.50;99.90
25024;DHT22;13033;50.936;5.334;2024-03-08T02:14:42;5.40;99.90
25024;DHT22;13033;50.936;5.334;2024-03-08T02:17:09;5.40;99.90
25024;DHT22;13033;50.936;5.334;2024-03-08T02:19:35;5.30;99.90
25024;DHT22;13033;50.936;5.334;2024-03-08T02:22:01;5.30;99.90
25024;DHT22;13033;50.936;5.334;2024-03-08T02:24:30;5.30;99.90
25024;DHT22;13033;50.936;5.334;2024-03-08T02:26:56;5.10;99.90
25024;DHT22;13033;50.936;5.334;2024-03-08T02:29:22;5.10;99.90
25024;DHT22;13033;50.936;5.334;2024-03-08T02:31:51;5.10;99.90
25024;DHT22;13033;50.936;5.334;2024-03-08T02:34:17;5.20;99.90
25024;DHT22;13033;50.936;5.334;2024-03-08T02:36:42;5.20;99.90
25024;DHT22;13033;50.936;5.334;2024-03-08T02:39:08;5.20;99.90
25024;DHT22;13033;50.936;5.334;2024-03-08T02:41:36;5.30;99.90
25024;DHT22;13033;50.936;5.334;2024-03-08T02:44:02;5.20;99.90
25024;DHT22;13033;50.936;5.334;2024-03-08T02:46:27;5.20;99.90
25024;DHT22;13033;50.936;5.334;2024-03-08T02:48:53;5.30;99.90
25024;DHT22;13033;50.936;5.334;2024-03-08T02:51:19;4.90;99.90
25024;DHT22;13033;50.936;5.334;2024-03-08T02:53:45;5.00;99.90
25024;DHT22;13033;50.936;5.334;2024-03-08T02:56:14;4.90;99.90
25024;DHT22;13033;50.936;5.334;2024-03-08T02:58:42;4.90;99.90
25024;DHT22;13033;50.936;5.334;2024-03-08T03:01:08;5.00;99.90
25024;DHT22;13033;50.936;5.334;2024-03-08T03:03:35;5.00;99.90
25024;DHT22;13033;50.936;5.334;2024-03-08T03:06:01;5.10;99.90
25024;DHT22;13033;50.936;5.334;2024-03-08T03:08:27;5.10;99.90
25024;DHT22;13033;50.936;5.334;2024-03-08T03:10:53;5.10;99.90
25024;DHT22;13033;50.936;5.334;2024-03-08T03:13:18;5.00;99.90
25024;DHT22;13033;50.936;5.334;2024-03-08T03:15:46;4.90;99.90
25024;DHT22;13033;50.936;5.334;2024-03-08T03:18:12;5.00;99.90
25024;DHT22;13033;50.936;5.334;2024-03-08T03:20:37;4.90;99.90
25024;DHT22;13033;50.936;5.334;2024-03-08T03:23:06;4.90;99.90
25024;DHT22;13033;50.936;5.334;2024-03-08T03:25:34;5.00;99.90
25024;DHT22;13033;50.936;5.334;2024-03-08T03:28:01;4.90;99.90
25024;DHT22;13033;50.936;5.334;2024-03-08T03:30:27;4.80;99.90
25024;DHT22;13033;50.936;5.334;2024-03-08T03:32:56;4.80;99.90
25024;DHT22;13033;50.936;5.334;2024-03-08T03:35:26;4.90;99.90
25024;DHT22;13033;50.936;5.334;2024-03-08T03:37:52;4.80;99.90
25024;DHT22;13033;50.936;5.334;2024-03-08T03:40:28;4.80;99.90
25024;DHT22;13033;50.936;5.334;2024-03-08T03:42:55;4.80;99.90
25024;DHT22;13033;50.936;5.334;2024-03-08T03:45:21;4.70;99.90
25024;DHT22;13033;50.936;5.334;2024-03-08T03:47:46;4.80;99.90
25024;DHT22;13033;50.936;5.334;2024-03-08T03:50:12;4.90;99.90
25024;DHT22;13033;50.936;5.334;2024-03-08T03:52:38;4.80;99.90
25024;DHT22;13033;50.936;5.334;2024-03-08T03:55:04;4.70;99.90
25024;DHT22;13033;50.936;5.334;2024-03-08T03:57:30;4.80;99.90
25024;DHT22;13033;50.936;5.334;2024-03-08T03:59:56;4.90;99.90
25024;DHT22;13033;50.936;5.334;2024-03-08T04:02:25;4.70;99.90
25024;DHT22;13033;50.936;5.334;2024-03-08T04:04:52;4.70;99.90
25024;DHT22;13033;50.936;5.334;2024-03-08T04:07:20;4.70;99.90
25024;DHT22;13033;50.936;5.334;2024-03-08T04:09:46;4.80;99.90
25024;DHT22;13033;50.936;5.334;2024-03-08T04:12:12;4.90;99.90
25024;DHT22;13033;50.936;5.334;2024-03-08T04:14:40;4.90;99.90
25024;DHT22;13033;50.936;5.334;2024-03-08T04:17:06;4.70;99.90
25024;DHT22;13033;50.936;5.334;2024-03-08T04:19:34;4.60;99.90
25024;DHT22;13033;50.936;5.334;2024-03-08T04:22:00;4.60;99.90
25024;DHT22;13033;50.936;5.334;2024-03-08T04:24:26;4.70;99.90
25024;DHT22;13033;50.936;5.334;2024-03-08T04:26:52;4.60;99.90
25024;DHT22;13033;50.936;5.334;2024-03-08T04:29:18;4.60;99.90
25024;DHT22;13033;50.936;5.334;2024-03-08T04:31:44;4.50;99.90
25024;DHT22;13033;50.936;5.334;2024-03-08T04:34:10;4.50;99.90
25024;DHT22;13033;50.936;5.334;2024-03-08T04:36:36;4.50;99.90
25024;DHT22;13033;50.936;5.334;2024-03-08T04:39:02;4.40;99.90
25024;DHT22;13033;50.936;5.334;2024-03-08T04:41:28;4.40;99.90
25024;DHT22;13033;50.936;5.334;2024-03-08T04:43:56;4.40;99.90
25024;DHT22;13033;50.936;5.334;2024-03-08T04:46:23;4.30;99.90
25024;DHT22;13033;50.936;5.334;2024-03-08T04:48:49;4.30;99.90
25024;DHT22;13033;50.936;5.334;2024-03-08T04:51:15;4.30;99.90
25024;DHT22;13033;50.936;5.334;2024-03-08T04:53:41;4.40;99.90
25024;DHT22;13033;50.936;5.334;2024-03-08T04:56:07;4.40;99.90
25024;DHT22;13033;50.936;5.334;2024-03-08T04:58:35;4.40;99.90
25024;DHT22;13033;50.936;5.334;2024-03-08T05:01:02;4.40;99.90
25024;DHT22;13033;50.936;5.334;2024-03-08T05:03:28;4.40;99.90
25024;DHT22;13033;50.936;5.334;2024-03-08T05:05:54;4.50;99.90
25024;DHT22;13033;50.936;5.334;2024-03-08T05:08:19;4.40;99.90
25024;DHT22;13033;50.936;5.334;2024-03-08T05:10:45;4.50;99.90
25024;DHT22;13033;50.936;5.334;2024-03-08T05:13:12;4.30;99.90
25024;DHT22;13033;50.936;5.334;2024-03-08T05:15:38;4.20;99.90
25024;DHT22;13033;50.936;5.334;2024-03-08T05:18:05;4.00;1.00
25024;DHT22;13033;50.936;5.334;2024-03-08T05:20:31;4.00;1.00
25024;DHT22;13033;50.936;5.334;2024-03-08T05:22:57;4.00;1.00
25024;DHT22;13033;50.936;5.334;2024-03-08T05:25:26;4.10;1.00
25024;DHT22;13033;50.936;5.334;2024-03-08T05:27:52;4.10;1.00
25024;DHT22;13033;50.936;5.334;2024-03-08T05:30:18;4.00;1.00
25024;DHT22;13033;50.936;5.334;2024-03-08T05:32:44;4.00;1.00
25024;DHT22;13033;50.936;5.334;2024-03-08T05:35:11;4.20;1.00
25024;DHT22;13033;50.936;5.334;2024-03-08T05:37:38;4.10;1.00
25024;DHT22;13033;50.936;5.334;2024-03-08T05:40:05;4.10;1.00
25024;DHT22;13033;50.936;5.334;2024-03-08T05:42:35;4.10;1.00
25024;DHT22;13033;50.936;5.334;2024-03-08T05:45:02;4.20;99.90
25024;DHT22;13033;50.936;5.334;2024-03-08T05:47:28;4.30;99.90
25024;DHT22;13033;50.936;5.334;2024-03-08T05:49:54;4.30;99.90
25024;DHT22;13033;50.936;5.334;2024-03-08T05:52:21;4.40;99.90
25024;DHT22;13033;50.936;5.334;2024-03-08T05:54:46;4.40;99.90
25024;DHT22;13033;50.936;5.334;2024-03-08T05:57:12;4.50;99.90
25024;DHT22;13033;50.936;5.334;2024-03-08T05:59:39;4.40;99.90
25024;DHT22;13033;50.936;5.334;2024-03-08T06:02:05;4.30;99.90
25024;DHT22;13033;50.936;5.334;2024-03-08T06:04:31;4.30;99.90
25024;DHT22;13033;50.936;5.334;2024-03-08T06:06:57;4.30;99.90
25024;DHT22;13033;50.936;5.334;2024-03-08T06:09:24;4.30;99.90
25024;DHT22;13033;50.936;5.334;2024-03-08T06:11:51;4.20;99.90
25024;DHT22;13033;50.936;5.334;2024-03-08T06:14:16;4.20;99.90
25024;DHT22;13033;50.936;5.334;2024-03-08T06:16:45;4.20;99.90
25024;DHT22;13033;50.936;5.334;2024-03-08T06:19:12;4.20;99.90
25024;DHT22;13033;50.936;5.334;2024-03-08T06:21:38;4.20;99.90
25024;DHT22;13033;50.936;5.334;2024-03-08T06:24:04;4.10;99.90
25024;DHT22;13033;50.936;5.334;2024-03-08T06:26:30;4.10;99.90
25024;DHT22;13033;50.936;5.334;2024-03-08T06:28:56;4.20;99.90
25024;DHT22;13033;50.936;5.334;2024-03-08T06:31:22;4.20;99.90
25024;DHT22;13033;50.936;5.334;2024-03-08T06:33:48;4.30;99.90
25024;DHT22;13033;50.936;5.334;2024-03-08T06:36:19;4.30;99.90
25024;DHT22;13033;50.936;5.334;2024-03-08T06:38:50;4.30;99.90
25024;DHT22;13033;50.936;5.334;2024-03-08T06:41:16;4.30;99.90
25024;DHT22;13033;50.936;5.334;2024-03-08T06:43:46;4.10;99.90
25024;DHT22;13033;50.936;5.334;2024-03-08T06:46:15;4.20;99.90
25024;DHT22;13033;50.936;5.334;2024-03-08T06:48:41;4.30;99.90
25024;DHT22;13033;50.936;5.334;2024-03-08T06:51:07;4.30;99.90
25024;DHT22;13033;50.936;5.334;2024-03-08T06:53:33;4.30;99.90
25024;DHT22;13033;50.936;5.334;2024-03-08T06:56:01;4.20;99.90
25024;DHT22;13033;50.936;5.334;2024-03-08T06:58:27;4.20;99.90
25024;DHT22;13033;50.936;5.334;2024-03-08T07:00:53;4.20;99.90
25024;DHT22;13033;50.936;5.334;2024-03-08T07:03:19;4.20;99.90
25024;DHT22;13033;50.936;5.334;2024-03-08T07:05:45;4.30;99.90
25024;DHT22;13033;50.936;5.334;2024-03-08T07:08:11;4.50;99.90
25024;DHT22;13033;50.936;5.334;2024-03-08T07:10:41;4.50;99.90
25024;DHT22;13033;50.936;5.334;2024-03-08T07:13:10;4.50;99.90
25024;DHT22;13033;50.936;5.334;2024-03-08T07:15:36;4.60;99.90
25024;DHT22;13033;50.936;5.334;2024-03-08T07:18:02;4.50;99.90
25024;DHT22;13033;50.936;5.334;2024-03-08T07:20:28;4.50;99.90
25024;DHT22;13033;50.936;5.334;2024-03-08T07:22:54;4.50;99.90
25024;DHT22;13033;50.936;5.334;2024-03-08T07:25:20;4.60;99.90
25024;DHT22;13033;50.936;5.334;2024-03-08T07:27:55;4.60;99.90
25024;DHT22;13033;50.936;5.334;2024-03-08T07:30:25;4.60;99.90
25024;DHT22;13033;50.936;5.334;2024-03-08T07:33:10;4.60;99.90
25024;DHT22;13033;50.936;5.334;2024-03-08T07:35:39;4.70;99.90
25024;DHT22;13033;50.936;5.334;2024-03-08T07:38:09;4.90;99.90
25024;DHT22;13033;50.936;5.334;2024-03-08T07:40:39;5.00;99.90
25024;DHT22;13033;50.936;5.334;2024-03-08T07:43:11;5.20;99.90
25024;DHT22;13033;50.936;5.334;2024-03-08T07:45:38;5.10;99.90
25024;DHT22;13033;50.936;5.334;2024-03-08T07:48:04;5.20;99.90
25024;DHT22;13033;50.936;5.334;2024-03-08T07:50:38;5.10;99.90
25024;DHT22;13033;50.936;5.334;2024-03-08T07:53:07;5.10;99.90
25024;DHT22;13033;50.936;5.334;2024-03-08T07:55:33;5.20;99.90
25024;DHT22;13033;50.936;5.334;2024-03-08T07:58:00;5.40;99.90
25024;DHT22;13033;50.936;5.334;2024-03-08T08:00:26;5.50;99.90
25024;DHT22;13033;50.936;5.334;2024-03-08T08:02:53;5.60;99.90
25024;DHT22;13033;50.936;5.334;2024-03-08T08:05:19;5.80;99.90
25024;DHT22;13033;50.936;5.334;2024-03-08T08:07:45;5.80;99.90
25024;DHT22;13033;50.936;5.334;2024-03-08T08:10:15;5.90;91.40
25024;DHT22;13033;50.936;5.334;2024-03-08T08:12:50;6.00;15.40
25024;DHT22;13033;50.936;5.334;2024-03-08T08:15:17;6.00;1.00
25024;DHT22;13033;50.936;5.334;2024-03-08T08:17:44;6.10;1.00
25024;DHT22;13033;50.936;5.334;2024-03-08T08:20:11;6.20;1.00
25024;DHT22;13033;50.936;5.334;2024-03-08T08:22:42;6.50;1.00
25024;DHT22;13033;50.936;5.334;2024-03-08T08:25:10;6.40;1.00
25024;DHT22;13033;50.936;5.334;2024-03-08T08:27:39;6.50;99.90
25024;DHT22;13033;50.936;5.334;2024-03-08T08:30:14;6.60;99.90
25024;DHT22;13033;50.936;5.334;2024-03-08T08:32:40;6.70;99.90
25024;DHT22;13033;50.936;5.334;2024-03-08T08:35:07;6.80;99.90
25024;DHT22;13033;50.936;5.334;2024-03-08T08:37:39;6.80;98.40
25024;DHT22;13033;50.936;5.334;2024-03-08T08:40:05;6.90;1.00
25024;DHT22;13033;50.936;5.334;2024-03-08T08:42:34;7.00;1.00
25024;DHT22;13033;50.936;5.334;2024-03-08T08:45:00;7.10;1.00
25024;DHT22;13033;50.936;5.334;2024-03-08T08:47:26;7.10;99.90
25024;DHT22;13033;50.936;5.334;2024-03-08T08:49:59;7.30;79.90
25024;DHT22;13033;50.936;5.334;2024-03-08T08:52:26;7.30;1.00
25024;DHT22;13033;50.936;5.334;2024-03-08T08:54:52;7.30;99.90
25024;DHT22;13033;50.936;5.334;2024-03-08T08:57:17;7.20;99.90
25024;DHT22;13033;50.936;5.334;2024-03-08T08:59:43;7.30;99.90
25024;DHT22;13033;50.936;5.334;2024-03-08T09:02:09;7.20;99.90
25024;DHT22;13033;50.936;5.334;2024-03-08T09:04:34;7.30;99.90
25024;DHT22;13033;50.936;5.334;2024-03-08T09:07:01;7.60;1.00
25024;DHT22;13033;50.936;5.334;2024-03-08T09:09:27;7.70;99.90
25024;DHT22;13033;50.936;5.334;2024-03-08T09:11:52;7.70;73.20
25024;DHT22;13033;50.936;5.334;2024-03-08T09:14:19;7.60;15.00
25024;DHT22;13033;50.936;5.334;2024-03-08T09:16:46;7.60;1.00
25024;DHT22;13033;50.936;5.334;2024-03-08T09:19:13;7.70;1.00
25024;DHT22;13033;50.936;5.334;2024-03-08T09:21:39;7.70;99.90
25024;DHT22;13033;50.936;5.334;2024-03-08T09:24:06;7.70;99.90
25024;DHT22;13033;50.936;5.334;2024-03-08T09:26:32;7.80;99.90
25024;DHT22;13033;50.936;5.334;2024-03-08T09:28:59;7.80;99.90
25024;DHT22;13033;50.936;5.334;2024-03-08T09:31:25;8.00;22.50
25024;DHT22;13033;50.936;5.334;2024-03-08T09:33:51;8.00;1.00
25024;DHT22;13033;50.936;5.334;2024-03-08T09:36:17;7.90;1.00
25024;DHT22;13033;50.936;5.334;2024-03-08T09:38:43;7.80;1.00
25024;DHT22;13033;50.936;5.334;2024-03-08T09:41:09;7.90;1.00
25024;DHT22;13033;50.936;5.334;2024-03-08T09:43:38;8.00;99.90
25024;DHT22;13033;50.936;5.334;2024-03-08T09:46:04;8.10;99.90
25024;DHT22;13033;50.936;5.334;2024-03-08T09:48:32;8.20;99.90
25024;DHT22;13033;50.936;5.334;2024-03-08T09:50:58;8.20;99.90
25024;DHT22;13033;50.936;5.334;2024-03-08T09:53:24;8.30;28.70
25024;DHT22;13033;50.936;5.334;2024-03-08T09:55:50;8.30;1.00
25024;DHT22;13033;50.936;5.334;2024-03-08T09:58:16;8.30;1.00
25024;DHT22;13033;50.936;5.334;2024-03-08T10:00:52;8.30;1.00
25024;DHT22;13033;50.936;5.334;2024-03-08T10:03:19;8.30;1.00
25024;DHT22;13033;50.936;5.334;2024-03-08T10:05:45;8.40;1.00
25024;DHT22;13033;50.936;5.334;2024-03-08T10:08:12;8.60;1.00
25024;DHT22;13033;50.936;5.334;2024-03-08T10:10:39;8.70;99.90
25024;DHT22;13033;50.936;5.334;2024-03-08T10:13:08;8.80;99.90
25024;DHT22;13033;50.936;5.334;2024-03-08T10:15:35;8.90;99.90
25024;DHT22;13033;50.936;5.334;2024-03-08T10:18:01;8.90;99.90
25024;DHT22;13033;50.936;5.334;2024-03-08T10:20:31;9.10;99.90
25024;DHT22;13033;50.936;5.334;2024-03-08T10:23:03;9.20;99.90
25024;DHT22;13033;50.936;5.334;2024-03-08T10:25:33;9.30;99.90
25024;DHT22;13033;50.936;5.334;2024-03-08T10:27:59;9.40;36.70
25024;DHT22;13033;50.936;5.334;2024-03-08T10:30:25;9.30;1.00
25024;DHT22;13033;50.936;5.334;2024-03-08T10:32:51;9.40;16.60
25024;DHT22;13033;50.936;5.334;2024-03-08T10:35:17;9.50;1.00
25024;DHT22;13033;50.936;5.334;2024-03-08T10:37:48;9.70;1.00
25024;DHT22;13033;50.936;5.334;2024-03-08T10:40:19;9.60;1.00
25024;DHT22;13033;50.936;5.334;2024-03-08T10:42:57;9.40;1.00
25024;DHT22;13033;50.936;5.334;2024-03-08T10:45:39;9.60;1.00
25024;DHT22;13033;50.936;5.334;2024-03-08T10:50:53;9.80;99.90
25024;DHT22;13033;50.936;5.334;2024-03-08T10:53:20;9.90;99.90
25024;DHT22;13033;50.936;5.334;2024-03-08T10:55:47;9.90;99.90
25024;DHT22;13033;50.936;5.334;2024-03-08T10:58:16;9.90;99.90
25024;DHT22;13033;50.936;5.334;2024-03-08T11:00:42;9.90;99.90
25024;DHT22;13033;50.936;5.334;2024-03-08T11:06:18;10.10;99.90
25024;DHT22;13033;50.936;5.334;2024-03-08T11:08:45;10.30;99.90
25024;DHT22;13033;50.936;5.334;2024-03-08T11:11:28;10.30;99.90
25024;DHT22;13033;50.936;5.334;2024-03-08T11:13:58;10.40;99.90
25024;DHT22;13033;50.936;5.334;2024-03-08T11:19:06;10.40;99.90
25024;DHT22;13033;50.936;5.334;2024-03-08T11:21:34;10.30;99.90
25024;DHT22;13033;50.936;5.334;2024-03-08T11:24:06;10.50;99.90
25024;DHT22;13033;50.936;5.334;2024-03-08T11:26:33;10.60;99.90
25024;DHT22;13033;50.936;5.334;2024-03-08T11:32:03;11.00;55.20
25024;DHT22;13033;50.936;5.334;2024-03-08T11:34:29;11.00;54.60
25024;DHT22;13033;50.936;5.334;2024-03-08T11:36:56;11.10;15.80
25024;DHT22;13033;50.936;5.334;2024-03-08T11:39:22;11.00;1.00
25024;DHT22;13033;50.936;5.334;2024-03-08T11:41:49;11.00;1.00
25024;DHT22;13033;50.936;5.334;2024-03-08T11:44:15;10.90;1.00
25024;DHT22;13033;50.936;5.334;2024-03-08T11:46:42;11.00;1.00
25024;DHT22;13033;50.936;5.334;2024-03-08T11:49:15;11.20;1.00
25024;DHT22;13033;50.936;5.334;2024-03-08T11:51:41;11.30;1.00
25024;DHT22;13033;50.936;5.334;2024-03-08T11:54:12;11.50;1.00
25024;DHT22;13033;50.936;5.334;2024-03-08T11:56:41;11.60;1.00
25024;DHT22;13033;50.936;5.334;2024-03-08T11:59:12;11.80;1.00
25024;DHT22;13033;50.936;5.334;2024-03-08T12:01:40;11.80;1.00
25024;DHT22;13033;50.936;5.334;2024-03-08T12:04:06;11.90;1.00
25024;DHT22;13033;50.936;5.334;2024-03-08T12:06:39;11.80;1.00
25024;DHT22;13033;50.936;5.334;2024-03-08T12:09:10;11.80;1.00
25024;DHT22;13033;50.936;5.334;2024-03-08T12:11:37;11.80;1.00
25024;DHT22;13033;50.936;5.334;2024-03-08T12:14:03;11.90;99.90
25024;DHT22;13033;50.936;5.334;2024-03-08T12:16:29;12.00;1.00
25024;DHT22;13033;50.936;5.334;2024-03-08T12:18:56;12.20;99.90
25024;DHT22;13033;50.936;5.334;2024-03-08T12:21:22;12.20;99.90
25024;DHT22;13033;50.936;5.334;2024-03-08T12:24:09;12.20;99.90
25024;DHT22;13033;50.936;5.334;2024-03-08T12:26:37;12.10;99.90
25024;DHT22;13033;50.936;5.334;2024-03-08T12:29:24;12.20;99.90
25024;DHT22;13033;50.936;5.334;2024-03-08T12:31:55;12.10;99.90
25024;DHT22;13033;50.936;5.334;2024-03-08T12:34:24;12.20;99.90
25024;DHT22;13033;50.936;5.334;2024-03-08T12:36:51;12.30;99.90
25024;DHT22;13033;50.936;5.334;2024-03-08T12:39:22;12.30;99.90
25024;DHT22;13033;50.936;5.334;2024-03-08T12:41:55;12.40;99.90
25024;DHT22;13033;50.936;5.334;2024-03-08T12:44:22;12.50;99.90
25024;DHT22;13033;50.936;5.334;2024-03-08T12:46:48;12.40;99.90
25024;DHT22;13033;50.936;5.334;2024-03-08T12:49:15;12.60;99.90
25024;DHT22;13033;50.936;5.334;2024-03-08T12:51:44;12.70;99.90
25024;DHT22;13033;50.936;5.334;2024-03-08T12:54:10;12.80;99.90
25024;DHT22;13033;50.936;5.334;2024-03-08T12:56:36;12.90;99.90
25024;DHT22;13033;50.936;5.334;2024-03-08T12:59:04;12.80;99.90
25024;DHT22;13033;50.936;5.334;2024-03-08T13:01:31;12.80;99.90
25024;DHT22;13033;50.936;5.334;2024-03-08T13:04:03;12.60;99.90
25024;DHT22;13033;50.936;5.334;2024-03-08T13:06:29;12.50;99.90
25024;DHT22;13033;50.936;5.334;2024-03-08T13:08:56;12.50;99.90
25024;DHT22;13033;50.936;5.334;2024-03-08T13:11:27;12.70;99.90
25024;DHT22;13033;50.936;5.334;2024-03-08T13:13:52;12.80;99.90
25024;DHT22;13033;50.936;5.334;2024-03-08T13:16:19;12.90;99.90
25024;DHT22;13033;50.936;5.334;2024-03-08T13:18:45;13.00;99.90
25024;DHT22;13033;50.936;5.334;2024-03-08T13:21:14;12.90;99.90
25024;DHT22;13033;50.936;5.334;2024-03-08T13:23:41;12.80;99.90
25024;DHT22;13033;50.936;5.334;2024-03-08T13:26:12;13.00;99.90
25024;DHT22;13033;50.936;5.334;2024-03-08T13:28:47;13.10;96.50
25024;DHT22;13033;50.936;5.334;2024-03-08T13:31:22;13.10;75.90
25024;DHT22;13033;50.936;5.334;2024-03-08T13:33:48;13.20;49.60
25024;DHT22;13033;50.936;5.334;2024-03-08T13:36:14;13.10;19.90
25024;DHT22;13033;50.936;5.334;2024-03-08T13:38:44;13.30;31.10
25024;DHT22;13033;50.936;5.334;2024-03-08T13:41:14;13.30;19.50
25024;DHT22;13033;50.936;5.334;2024-03-08T13:43:43;13.30;19.30
25024;DHT22;13033;50.936;5.334;2024-03-08T13:46:10;13.30;13.50
25024;DHT22;13033;50.936;5.334;2024-03-08T13:48:36;13.40;7.50
25024;DHT22;13033;50.936;5.334;2024-03-08T13:51:07;13.30;1.00
25024;DHT22;13033;50.936;5.334;2024-03-08T13:53:35;13.40;1.00
25024;DHT22;13033;50.936;5.334;2024-03-08T13:56:05;13.30;1.00
25024;DHT22;13033;50.936;5.334;2024-03-08T13:58:36;13.40;1.00
25024;DHT22;13033;50.936;5.334;2024-03-08T14:01:02;13.50;1.00
25024;DHT22;13033;50.936;5.334;2024-03-08T14:03:31;13.60;1.00
25024;DHT22;13033;50.936;5.334;2024-03-08T14:05:58;13.70;1.00
25024;DHT22;13033;50.936;5.334;2024-03-08T14:08:24;13.60;1.00
25024;DHT22;13033;50.936;5.334;2024-03-08T14:10:50;13.60;1.00
25024;DHT22;13033;50.936;5.334;2024-03-08T14:13:19;13.50;1.00
25024;DHT22;13033;50.936;5.334;2024-03-08T14:15:44;13.60;1.00
25024;DHT22;13033;50.936;5.334;2024-03-08T14:18:11;13.50;1.00
25024;DHT22;13033;50.936;5.334;2024-03-08T14:20:39;13.60;1.00
25024;DHT22;13033;50.936;5.334;2024-03-08T14:23:04;13.60;1.00
25024;DHT22;13033;50.936;5.334;2024-03-08T14:25:33;13.50;1.00
25024;DHT22;13033;50.936;5.334;2024-03-08T14:27:59;13.40;1.00
25024;DHT22;13033;50.936;5.334;2024-03-08T14:30:29;13.50;1.00
25024;DHT22;13033;50.936;5.334;2024-03-08T14:33:07;13.50;1.00
25024;DHT22;13033;50.936;5.334;2024-03-08T14:35:38;13.50;1.00
25024;DHT22;13033;50.936;5.334;2024-03-08T14:38:04;13.50;1.00
25024;DHT22;13033;50.936;5.334;2024-03-08T14:40:30;13.40;1.00
25024;DHT22;13033;50.936;5.334;2024-03-08T14:42:56;13.50;1.00
25024;DHT22;13033;50.936;5.334;2024-03-08T14:45:22;13.60;1.00
25024;DHT22;13033;50.936;5.334;2024-03-08T14:47:50;13.80;1.00
25024;DHT22;13033;50.936;5.334;2024-03-08T14:50:20;13.80;1.00
25024;DHT22;13033;50.936;5.334;2024-03-08T14:52:46;13.70;1.00
25024;DHT22;13033;50.936;5.334;2024-03-08T14:55:17;13.70;1.00
25024;DHT22;13033;50.936;5.334;2024-03-08T14:57:45;13.60;1.00
25024;DHT22;13033;50.936;5.334;2024-03-08T15:00:12;13.60;1.00
25024;DHT22;13033;50.936;5.334;2024-03-08T15:02:45;14.10;1.00
25024;DHT22;13033;50.936;5.334;2024-03-08T15:05:13;14.60;1.00
25024;DHT22;13033;50.936;5.334;2024-03-08T15:07:39;15.40;1.00
25024;DHT22;13033;50.936;5.334;2024-03-08T15:10:08;16.00;99.90
25024;DHT22;13033;50.936;5.334;2024-03-08T15:12:40;16.60;99.90
25024;DHT22;13033;50.936;5.334;2024-03-08T15:15:11;16.70;99.90
25024;DHT22;13033;50.936;5.334;2024-03-08T15:17:37;16.60;99.90
25024;DHT22;13033;50.936;5.334;2024-03-08T15:20:06;16.50;99.90
25024;DHT22;13033;50.936;5.334;2024-03-08T15:22:46;17.00;99.90
25024;DHT22;13033;50.936;5.334;2024-03-08T15:25:12;17.10;99.90
25024;DHT22;13033;50.936;5.334;2024-03-08T15:27:48;16.30;99.90
25024;DHT22;13033;50.936;5.334;2024-03-08T15:30:14;16.60;99.90
25024;DHT22;13033;50.936;5.334;2024-03-08T15:32:45;16.90;99.90
25024;DHT22;13033;50.936;5.334;2024-03-08T15:35:13;17.40;99.90
25024;DHT22;13033;50.936;5.334;2024-03-08T15:37:40;16.90;99.90
25024;DHT22;13033;50.936;5.334;2024-03-08T15:40:13;16.70;99.90
25024;DHT22;13033;50.936;5.334;2024-03-08T15:42:56;16.80;99.90
25024;DHT22;13033;50.936;5.334;2024-03-08T15:45:22;17.10;99.90
25024;DHT22;13033;50.936;5.334;2024-03-08T15:47:57;17.10;99.90
25024;DHT22;13033;50.936;5.334;2024-03-08T15:50:23;16.80;99.90
25024;DHT22;13033;50.936;5.334;2024-03-08T15:52:49;16.30;99.90
25024;DHT22;13033;50.936;5.334;2024-03-08T15:55:22;16.30;99.90
25024;DHT22;13033;50.936;5.334;2024-03-08T15:57:52;16.50;99.90